Time;durP1;ratioP1;P1;durP2;ratioP2;P2;SDS_P1;SDS_P2;PMS_P1;PMS_P2;Temp;Humidity;BMP_temperature;BMP_pressure;BME280_temperature;BME280_humidity;BME280_pressure;Samples;Min_cycle;Max_cycle;Signal;HPM_P1;HPM_P2
2024/03/25 00:01:09;;;;;;;52.58;49.10;;;;;;;;;;5063035;28;20470;-80
2024/03/25 00:03:36;;;;;;;52.10;49.00;;;;;;;;;;5057107;28;20247;-81
2024/03/25 00:06:02;;;;;;;48.53;44.83;;;;;;;;;;5067151;28;20459;-81
2024/03/25 00:08:29;;;;;;;49.43;46.57;;;;;;;;;;5077953;28;20951;-80
2024/03/25 00:10:56;;;;;;;43.63;40.90;;;;;;;;;;5077338;28;20462;-81
2024/03/25 00:13:23;;;;;;;46.60;43.07;;;;;;;;;;5058755;28;20824;-81
2024/03/25 00:15:49;;;;;;;45.97;42.73;;;;;;;;;;5057075;28;20440;-81
2024/03/25 00:18:17;;;;;;;46.97;42.80;;;;;;;;;;5056975;28;20449;-80
2024/03/25 00:20:43;;;;;;;41.53;39.43;;;;;;;;;;5065253;28;20550;-80
2024/03/25 00:23:11;;;;;;;45.03;42.10;;;;;;;;;;5063803;28;20468;-80
2024/03/25 00:25:37;;;;;;;45.40;42.23;;;;;;;;;;5077282;28;20231;-83
2024/03/25 00:28:05;;;;;;;44.63;41.85;;;;;;;;;;5069677;28;20420;-80
2024/03/25 00:30:31;;;;;;;45.23;42.30;;;;;;;;;;5056775;28;20284;-81
2024/03/25 00:32:58;;;;;;;42.67;40.15;;;;;;;;;;5057083;28;20970;-80
2024/03/25 00:35:25;;;;;;;43.07;40.63;;;;;;;;;;5056918;28;20230;-81
2024/03/25 00:37:52;;;;;;;46.50;43.03;;;;;;;;;;5055997;28;20524;-81
2024/03/25 00:40:18;;;;;;;47.85;44.20;;;;;;;;;;5056922;28;20960;-81
2024/03/25 00:42:46;;;;;;;43.90;40.70;;;;;;;;;;5057356;28;20250;-80
2024/03/25 00:45:12;;;;;;;46.13;42.67;;;;;;;;;;5056700;28;21340;-81
2024/03/25 00:47:39;;;;;;;43.40;40.90;;;;;;;;;;5056450;28;21029;-80
2024/03/25 00:50:06;;;;;;;46.40;43.27;;;;;;;;;;5069712;28;20499;-80
2024/03/25 00:52:34;;;;;;;46.13;43.20;;;;;;;;;;5066441;28;20939;-81
2024/03/25 00:55:00;;;;;;;48.57;45.67;;;;;;;;;;5057071;28;20938;-80
2024/03/25 00:57:28;;;;;;;48.50;45.40;;;;;;;;;;5056708;28;20771;-81
2024/03/25 00:59:54;;;;;;;47.30;44.20;;;;;;;;;;5058796;28;20484;-82
2024/03/25 01:02:21;;;;;;;47.10;44.20;;;;;;;;;;5056992;28;20454;-81
2024/03/25 01:04:47;;;;;;;51.90;47.80;;;;;;;;;;5056449;28;20460;-80
2024/03/25 01:07:14;;;;;;;45.27;42.27;;;;;;;;;;5055652;28;20508;-81
2024/03/25 01:09:42;;;;;;;47.23;44.07;;;;;;;;;;5056340;28;20474;-80
2024/03/25 01:12:09;;;;;;;51.77;47.97;;;;;;;;;;5055845;28;20458;-81
2024/03/25 01:14:36;;;;;;;62.55;58.00;;;;;;;;;;5056400;28;20446;-81
2024/03/25 01:17:02;;;;;;;68.00;63.27;;;;;;;;;;5068375;28;20207;-82
2024/03/25 01:19:29;;;;;;;75.63;70.53;;;;;;;;;;5075992;28;20469;-81
2024/03/25 01:21:55;;;;;;;76.00;70.40;;;;;;;;;;5076261;28;20821;-80
2024/03/25 01:24:22;;;;;;;80.20;75.37;;;;;;;;;;5076111;28;20449;-80
2024/03/25 01:26:49;;;;;;;82.83;78.30;;;;;;;;;;5058109;28;20460;-81
2024/03/25 01:29:16;;;;;;;82.97;77.93;;;;;;;;;;5055903;28;20513;-81
2024/03/25 01:31:42;;;;;;;91.33;85.40;;;;;;;;;;5072211;28;20536;-82
2024/03/25 01:34:09;;;;;;;83.90;79.07;;;;;;;;;;5076329;28;20417;-81
2024/03/25 01:36:35;;;;;;;89.80;84.40;;;;;;;;;;5076014;28;20497;-81
2024/03/25 01:39:04;;;;;;;91.40;85.67;;;;;;;;;;5076609;28;20471;-81
2024/03/25 01:41:30;;;;;;;92.93;86.70;;;;;;;;;;5076273;28;20464;-81
2024/03/25 01:43:59;;;;;;;85.30;80.97;;;;;;;;;;5075473;28;20449;-81
2024/03/25 01:46:25;;;;;;;78.63;74.07;;;;;;;;;;5075242;28;20206;-81
2024/03/25 01:48:53;;;;;;;76.17;71.37;;;;;;;;;;5075367;28;20447;-81
2024/03/25 01:51:20;;;;;;;78.70;73.60;;;;;;;;;;5075423;28;20441;-80
2024/03/25 01:53:47;;;;;;;87.50;81.20;;;;;;;;;;5075847;28;20461;-80
2024/03/25 01:56:14;;;;;;;83.57;78.70;;;;;;;;;;5075196;28;20446;-81
2024/03/25 01:58:41;;;;;;;79.27;73.13;;;;;;;;;;5075821;28;20456;-81
2024/03/25 02:01:13;;;;;;;73.60;69.43;;;;;;;;;;5075458;28;20470;-81
2024/03/25 02:03:40;;;;;;;76.80;71.78;;;;;;;;;;5056441;28;20951;-82
2024/03/25 02:06:08;;;;;;;71.60;68.10;;;;;;;;;;5069508;28;20284;-82
2024/03/25 02:08:35;;;;;;;65.28;61.88;;;;;;;;;;5075478;28;20425;-80
2024/03/25 02:11:02;;;;;;;65.30;61.90;;;;;;;;;;5075790;28;20273;-81
2024/03/25 02:13:29;;;;;;;67.43;63.53;;;;;;;;;;5076060;28;20457;-81
2024/03/25 02:15:55;;;;;;;69.33;64.70;;;;;;;;;;5075773;28;20423;-81
2024/03/25 02:18:24;;;;;;;63.60;60.30;;;;;;;;;;5076496;28;20515;-82
2024/03/25 02:20:50;;;;;;;63.50;58.77;;;;;;;;;;5075550;28;20450;-80
2024/03/25 02:23:17;;;;;;;68.03;62.60;;;;;;;;;;5071283;28;20452;-82
2024/03/25 02:25:54;;;;;;;74.87;69.77;;;;;;;;;;5075146;28;20485;-81
2024/03/25 02:28:21;;;;;;;76.73;71.80;;;;;;;;;;5061980;28;20951;-81
2024/03/25 02:30:47;;;;;;;77.30;72.10;;;;;;;;;;5062897;28;20519;-82
2024/03/25 02:33:14;;;;;;;81.10;75.97;;;;;;;;;;5058694;28;20465;-79
2024/03/25 02:35:41;;;;;;;76.50;71.17;;;;;;;;;;5059870;28;20445;-82
2024/03/25 02:38:09;;;;;;;81.40;76.53;;;;;;;;;;5060200;28;20511;-80
2024/03/25 02:40:36;;;;;;;76.67;71.87;;;;;;;;;;5058740;28;20481;-82
2024/03/25 02:43:07;;;;;;;81.37;76.60;;;;;;;;;;5059061;28;20873;-81
2024/03/25 02:45:33;;;;;;;82.17;76.77;;;;;;;;;;5060251;28;20449;-81
2024/03/25 02:48:00;;;;;;;74.83;70.20;;;;;;;;;;5073971;28;20891;-80
2024/03/25 02:50:26;;;;;;;72.07;68.38;;;;;;;;;;5082647;28;20472;-81
2024/03/25 02:52:53;;;;;;;72.90;67.80;;;;;;;;;;5065687;28;20214;-80
2024/03/25 02:55:19;;;;;;;81.37;76.00;;;;;;;;;;5063056;28;20489;-80
2024/03/25 02:57:46;;;;;;;76.00;71.50;;;;;;;;;;5064596;28;20462;-80
2024/03/25 03:00:14;;;;;;;74.28;69.28;;;;;;;;;;5082616;28;20948;-81
2024/03/25 03:02:41;;;;;;;93.95;87.72;;;;;;;;;;5082799;28;20265;-80
2024/03/25 03:05:08;;;;;;;86.97;81.23;;;;;;;;;;5083072;28;20608;-81
2024/03/25 03:07:35;;;;;;;87.35;81.75;;;;;;;;;;5065735;28;20474;-80
2024/03/25 03:10:01;;;;;;;71.33;66.27;;;;;;;;;;5062802;28;20219;-79
2024/03/25 03:12:28;;;;;;;74.73;69.70;;;;;;;;;;5062371;28;20480;-81
2024/03/25 03:14:54;;;;;;;62.47;59.00;;;;;;;;;;5062543;28;20439;-81
2024/03/25 03:17:22;;;;;;;67.87;63.03;;;;;;;;;;5062023;28;20438;-81
2024/03/25 03:19:48;;;;;;;70.82;65.18;;;;;;;;;;5069782;28;20486;-80
2024/03/25 03:22:15;;;;;;;68.47;63.53;;;;;;;;;;5078881;28;20673;-80
2024/03/25 03:24:41;;;;;;;69.37;64.63;;;;;;;;;;5082635;28;20892;-81
2024/03/25 03:27:08;;;;;;;69.13;64.28;;;;;;;;;;5067261;28;20869;-80
2024/03/25 03:29:34;;;;;;;75.87;69.77;;;;;;;;;;5072520;28;20235;-81
2024/03/25 03:32:01;;;;;;;73.33;68.97;;;;;;;;;;5074497;28;20867;-81
2024/03/25 03:34:28;;;;;;;72.03;67.20;;;;;;;;;;5074040;28;20465;-80
2024/03/25 03:36:55;;;;;;;73.47;68.10;;;;;;;;;;5061232;28;20474;-81
2024/03/25 03:39:21;;;;;;;74.77;69.27;;;;;;;;;;5061779;28;20463;-80
2024/03/25 03:41:48;;;;;;;73.03;68.43;;;;;;;;;;5061891;28;20433;-81
2024/03/25 03:44:15;;;;;;;71.47;66.57;;;;;;;;;;5061304;28;20515;-80
2024/03/25 03:46:42;;;;;;;62.07;58.40;;;;;;;;;;5061921;28;20445;-80
2024/03/25 03:49:08;;;;;;;70.77;65.40;;;;;;;;;;5061724;28;20428;-80
2024/03/25 03:51:36;;;;;;;67.38;62.90;;;;;;;;;;5062806;28;20409;-80
2024/03/25 03:54:02;;;;;;;68.47;63.90;;;;;;;;;;5061613;28;20208;-81
2024/03/25 03:56:29;;;;;;;64.27;59.67;;;;;;;;;;5060958;28;20446;-80
2024/03/25 03:58:55;;;;;;;67.63;62.97;;;;;;;;;;5061631;28;20926;-81
2024/03/25 04:01:22;;;;;;;64.80;60.33;;;;;;;;;;5062079;28;20492;-80
2024/03/25 04:03:49;;;;;;;65.57;60.87;;;;;;;;;;5086322;28;20632;-80
2024/03/25 04:06:16;;;;;;;60.23;56.73;;;;;;;;;;5091160;28;20542;-80
2024/03/25 04:08:44;;;;;;;60.40;55.57;;;;;;;;;;5081468;28;20926;-80
2024/03/25 04:11:11;;;;;;;57.60;53.27;;;;;;;;;;5081749;28;20470;-80
2024/03/25 04:13:38;;;;;;;61.10;55.70;;;;;;;;;;5074368;28;20567;-81
2024/03/25 04:16:06;;;;;;;60.17;54.57;;;;;;;;;;5076808;28;20454;-81
2024/03/25 04:18:32;;;;;;;56.17;51.80;;;;;;;;;;5061207;28;20477;-80
2024/03/25 04:20:59;;;;;;;55.77;51.93;;;;;;;;;;5061277;28;20494;-80
2024/03/25 04:23:25;;;;;;;56.47;52.47;;;;;;;;;;5061356;28;20457;-80
2024/03/25 04:25:54;;;;;;;56.10;52.37;;;;;;;;;;5060363;28;20494;-80
2024/03/25 04:28:20;;;;;;;53.40;49.63;;;;;;;;;;5061390;28;20450;-79
2024/03/25 04:30:52;;;;;;;54.33;49.93;;;;;;;;;;5061113;28;20480;-80
2024/03/25 04:33:18;;;;;;;57.10;53.30;;;;;;;;;;5061478;28;20427;-80
2024/03/25 04:35:46;;;;;;;55.20;51.00;;;;;;;;;;5060543;28;20420;-81
